createdAt,value
2023-01-05T00:00:48.040Z,13.07
2023-01-05T00:03:15.184Z,13.07
2023-01-05T00:05:42.273Z,13.07
2023-01-05T00:08:09.363Z,13.11
2023-01-05T00:10:40.818Z,13.09
2023-01-05T00:13:12.207Z,13.08
2023-01-05T00:15:43.069Z,13.08
2023-01-05T00:18:16.412Z,13.03
2023-01-05T00:20:46.699Z,13.00
2023-01-05T00:23:13.795Z,12.98
2023-01-05T00:25:41.397Z,12.98
2023-01-05T00:28:08.561Z,12.97
2023-01-05T00:30:38.864Z,12.95
2023-01-05T00:33:08.460Z,12.93
2023-01-05T00:35:35.650Z,12.92
2023-01-05T00:38:02.722Z,12.90
2023-01-05T00:40:29.851Z,12.90
2023-01-05T00:42:56.957Z,12.91
2023-01-05T00:45:24.097Z,12.89
2023-01-05T00:47:52.359Z,12.88
2023-01-05T00:50:19.459Z,12.85
2023-01-05T00:52:46.601Z,12.85
2023-01-05T00:55:14.007Z,12.88
2023-01-05T00:57:41.237Z,12.86
2023-01-05T01:00:11.407Z,12.85
2023-01-05T01:02:38.431Z,12.84
2023-01-05T01:05:06.052Z,12.85
2023-01-05T01:07:33.202Z,12.88
2023-01-05T01:10:00.312Z,12.89
2023-01-05T01:12:27.382Z,12.88
2023-01-05T01:14:54.389Z,12.87
2023-01-05T01:17:21.399Z,12.87
2023-01-05T01:19:48.559Z,12.86
2023-01-05T01:22:15.720Z,12.84
2023-01-05T01:24:42.847Z,12.86
2023-01-05T01:27:09.973Z,12.86
2023-01-05T01:29:37.093Z,12.84
2023-01-05T01:32:04.319Z,12.83
2023-01-05T01:34:31.649Z,12.83
2023-01-05T01:36:59.438Z,12.83
2023-01-05T01:39:26.472Z,12.83
2023-01-05T01:41:53.554Z,12.82
2023-01-05T01:44:23.680Z,12.80
2023-01-05T01:46:50.699Z,12.81
2023-01-05T01:49:17.892Z,12.79
2023-01-05T01:51:47.387Z,12.76
2023-01-05T01:54:18.387Z,12.74
2023-01-05T01:56:48.221Z,12.73
2023-01-05T01:59:15.974Z,12.72
2023-01-05T02:01:43.105Z,12.70
2023-01-05T02:04:10.616Z,12.70
2023-01-05T02:06:38.548Z,12.69
2023-01-05T02:09:06.730Z,12.67
2023-01-05T02:11:36.947Z,12.68
2023-01-05T02:14:07.094Z,12.66
2023-01-05T02:16:37.195Z,12.65
2023-01-05T02:19:07.414Z,12.66
2023-01-05T02:21:35.920Z,12.65
2023-01-05T02:24:04.340Z,12.63
2023-01-05T02:26:34.474Z,12.65
2023-01-05T02:29:11.651Z,12.66
2023-01-05T02:31:40.154Z,12.66
2023-01-05T02:34:09.924Z,12.67
2023-01-05T02:36:42.810Z,12.67
2023-01-05T02:39:11.209Z,12.67
2023-01-05T02:41:40.931Z,12.64
2023-01-05T02:44:08.779Z,12.64
2023-01-05T02:46:35.885Z,12.64
2023-01-05T02:49:04.625Z,12.63
2023-01-05T02:51:35.073Z,12.63
2023-01-05T02:54:07.177Z,12.64
2023-01-05T02:56:37.894Z,12.64
2023-01-05T02:59:09.116Z,12.65
2023-01-05T03:01:39.769Z,12.65
2023-01-05T03:04:09.872Z,12.67
2023-01-05T03:06:47.378Z,12.68
2023-01-05T03:09:16.484Z,12.69
2023-01-05T03:11:49.171Z,12.65
2023-01-05T03:14:21.137Z,12.64
2023-01-05T03:16:49.819Z,12.67
2023-01-05T03:19:22.894Z,12.70
2023-01-05T03:21:54.203Z,12.69
2023-01-05T03:24:24.479Z,12.69
2023-01-05T03:26:54.752Z,12.66
2023-01-05T03:29:24.843Z,12.66
2023-01-05T03:31:58.419Z,12.67
2023-01-05T03:34:28.900Z,12.64
2023-01-05T03:37:01.373Z,12.65
2023-01-05T03:39:30.710Z,12.67
2023-01-05T03:41:58.395Z,12.67
2023-01-05T03:44:25.537Z,12.70
2023-01-05T03:46:52.610Z,12.70
2023-01-05T03:49:19.722Z,12.71
2023-01-05T03:51:46.710Z,12.74
2023-01-05T03:54:13.830Z,12.73
2023-01-05T03:56:40.853Z,12.72
2023-01-05T03:59:07.955Z,12.70
2023-01-05T04:01:35.082Z,12.70
2023-01-05T04:04:02.180Z,12.70
2023-01-05T04:06:29.291Z,12.70
2023-01-05T04:08:56.355Z,12.67
2023-01-05T04:11:24.215Z,12.66
2023-01-05T04:13:51.298Z,12.65
2023-01-05T04:16:18.721Z,12.63
2023-01-05T04:18:45.995Z,12.65
2023-01-05T04:21:13.052Z,12.65
2023-01-05T04:23:40.252Z,12.58
2023-01-05T04:26:07.371Z,12.54
2023-01-05T04:28:34.412Z,12.51
2023-01-05T04:31:01.610Z,12.49
2023-01-05T04:33:28.698Z,12.47
2023-01-05T04:35:55.670Z,12.47
2023-01-05T04:38:22.748Z,12.44
2023-01-05T04:40:50.790Z,12.43
2023-01-05T04:43:18.534Z,12.48
2023-01-05T04:45:47.878Z,12.47
2023-01-05T04:48:15.067Z,12.48
2023-01-05T04:50:42.211Z,12.48
2023-01-05T04:53:09.413Z,12.47
2023-01-05T04:55:36.479Z,12.48
2023-01-05T04:58:10.089Z,12.48
2023-01-05T05:00:39.222Z,12.46
2023-01-05T05:03:06.434Z,12.44
2023-01-05T05:05:33.889Z,12.42
2023-01-05T05:08:00.899Z,12.39
2023-01-05T05:10:28.172Z,12.39
2023-01-05T05:12:55.298Z,12.36
2023-01-05T05:15:22.312Z,12.32
2023-01-05T05:17:49.463Z,12.30
2023-01-05T05:20:16.732Z,12.27
2023-01-05T05:22:43.853Z,12.25
2023-01-05T05:25:10.935Z,12.23
2023-01-05T05:27:37.999Z,12.21
2023-01-05T05:30:05.446Z,12.17
2023-01-05T05:32:32.520Z,12.14
2023-01-05T05:34:59.550Z,12.14
2023-01-05T05:37:26.549Z,12.11
2023-01-05T05:39:53.621Z,12.06
2023-01-05T05:42:20.691Z,12.06
2023-01-05T05:44:47.809Z,12.03
2023-01-05T05:47:14.830Z,12.01
2023-01-05T05:49:41.880Z,12.02
2023-01-05T05:52:08.971Z,12.05
2023-01-05T05:54:36.022Z,12.06
2023-01-05T05:57:03.196Z,12.10
2023-01-05T05:59:30.182Z,12.12
2023-01-05T06:01:57.306Z,12.14
2023-01-05T06:04:24.457Z,12.16
2023-01-05T06:06:51.492Z,12.20
2023-01-05T06:09:18.668Z,12.25
2023-01-05T06:11:45.935Z,12.29
2023-01-05T06:14:12.957Z,12.31
2023-01-05T06:16:39.995Z,12.33
2023-01-05T06:19:07.751Z,12.35
2023-01-05T06:21:34.972Z,12.35
2023-01-05T06:24:02.072Z,12.36
2023-01-05T06:26:29.219Z,12.40
2023-01-05T06:28:56.319Z,12.41
2023-01-05T06:31:23.551Z,12.43
2023-01-05T06:33:50.713Z,12.46
2023-01-05T06:36:17.739Z,12.48
2023-01-05T06:38:45.009Z,12.49
2023-01-05T06:41:12.254Z,12.53
2023-01-05T06:43:39.287Z,12.53
2023-01-05T06:46:06.478Z,12.54
2023-01-05T06:48:33.540Z,12.54
2023-01-05T06:51:00.679Z,12.56
2023-01-05T06:53:27.675Z,12.54
2023-01-05T06:55:54.892Z,12.55
2023-01-05T06:58:22.041Z,12.55
2023-01-05T07:00:49.172Z,12.54
2023-01-05T07:03:16.230Z,12.55
2023-01-05T07:05:43.350Z,12.55
2023-01-05T07:08:10.573Z,12.53
2023-01-05T07:10:37.737Z,12.52
2023-01-05T07:13:04.795Z,12.53
2023-01-05T07:15:31.850Z,12.54
2023-01-05T07:17:58.850Z,12.55
2023-01-05T07:20:25.949Z,12.55
2023-01-05T07:22:53.176Z,12.52
2023-01-05T07:25:20.259Z,12.49
2023-01-05T07:27:50.556Z,12.48
2023-01-05T07:30:17.623Z,12.46
2023-01-05T07:32:44.657Z,12.51
2023-01-05T07:35:11.712Z,12.52
2023-01-05T07:37:38.832Z,12.50
2023-01-05T07:40:06.375Z,12.50
2023-01-05T07:42:33.712Z,12.51
2023-01-05T07:45:00.889Z,12.48
2023-01-05T07:47:27.991Z,12.46
2023-01-05T07:49:55.301Z,12.44
2023-01-05T07:52:22.316Z,12.46
2023-01-05T07:54:49.428Z,12.48
2023-01-05T07:57:16.785Z,12.52
2023-01-05T07:59:43.830Z,12.57
2023-01-05T08:02:11.395Z,12.60
2023-01-05T08:04:38.662Z,12.62
2023-01-05T08:07:11.692Z,12.66
2023-01-05T08:09:42.555Z,12.66
2023-01-05T08:12:09.740Z,12.65
2023-01-05T08:14:36.801Z,12.69
2023-01-05T08:17:03.893Z,12.72
2023-01-05T08:19:30.925Z,12.72
2023-01-05T08:21:58.169Z,12.72
2023-01-05T08:24:25.243Z,12.74
2023-01-05T08:26:52.446Z,12.76
2023-01-05T08:29:22.750Z,12.80
2023-01-05T08:31:49.959Z,12.80
2023-01-05T08:34:17.181Z,12.81
2023-01-05T08:36:44.212Z,12.82
2023-01-05T08:39:11.736Z,12.84
2023-01-05T08:41:39.920Z,12.88
2023-01-05T08:44:08.283Z,12.92
2023-01-05T08:46:36.203Z,12.93
2023-01-05T08:49:04.814Z,12.96
2023-01-05T08:51:32.599Z,12.97
2023-01-05T08:53:59.610Z,12.97
2023-01-05T08:56:28.791Z,12.98
2023-01-05T08:58:59.572Z,13.00
2023-01-05T09:01:27.032Z,13.04
2023-01-05T09:03:54.186Z,13.08
2023-01-05T09:06:21.234Z,13.09
2023-01-05T09:08:49.024Z,13.16
2023-01-05T09:11:18.190Z,13.25
2023-01-05T09:13:47.650Z,13.33
2023-01-05T09:16:24.858Z,13.33
2023-01-05T09:19:04.925Z,13.34
2023-01-05T09:21:32.071Z,13.34
2023-01-05T09:23:59.549Z,13.34
2023-01-05T09:26:26.644Z,13.38
2023-01-05T09:28:53.750Z,13.36
2023-01-05T09:31:22.129Z,13.36
2023-01-05T09:33:49.374Z,13.35
2023-01-05T09:36:17.321Z,13.36
2023-01-05T09:38:48.529Z,13.37
2023-01-05T09:41:21.144Z,13.42
2023-01-05T09:43:49.600Z,13.45
2023-01-05T09:46:18.898Z,13.43
2023-01-05T09:48:47.938Z,13.47
2023-01-05T09:51:15.118Z,13.49
2023-01-05T09:53:42.291Z,13.51
2023-01-05T09:56:13.699Z,13.53
2023-01-05T09:58:43.155Z,13.60
2023-01-05T10:01:13.897Z,13.65
2023-01-05T10:06:34.921Z,13.74
2023-01-05T10:09:03.986Z,13.75
2023-01-05T10:11:35.611Z,13.74
2023-01-05T10:14:06.394Z,13.71
2023-01-05T10:16:33.490Z,13.75
2023-01-05T10:19:03.013Z,13.75
2023-01-05T10:21:33.254Z,13.77
2023-01-05T10:24:00.650Z,13.82
2023-01-05T10:26:45.197Z,13.82
2023-01-05T10:29:23.331Z,13.90
2023-01-05T10:31:52.753Z,13.95
2023-01-05T10:34:20.199Z,13.98
2023-01-05T10:37:11.661Z,14.01
2023-01-05T10:39:55.762Z,14.05
2023-01-05T10:42:26.303Z,14.06
2023-01-05T10:44:53.934Z,14.11
2023-01-05T10:47:22.187Z,14.12
2023-01-05T10:49:49.393Z,14.13
2023-01-05T10:52:17.951Z,14.13
2023-01-05T10:54:49.160Z,14.11
2023-01-05T10:57:19.489Z,14.12
2023-01-05T10:59:49.672Z,14.14
2023-01-05T11:02:16.959Z,14.19
2023-01-05T11:04:47.567Z,14.24
2023-01-05T11:07:14.756Z,14.26
2023-01-05T11:09:45.535Z,14.28
2023-01-05T11:12:16.820Z,14.33
2023-01-05T11:14:44.824Z,14.38
2023-01-05T11:17:16.701Z,14.46
2023-01-05T11:19:48.728Z,14.52
2023-01-05T11:22:18.896Z,14.58
2023-01-05T11:24:49.372Z,14.65
2023-01-05T11:27:19.573Z,14.66
2023-01-05T11:29:46.704Z,14.71
2023-01-05T11:32:14.016Z,14.71
2023-01-05T11:34:44.276Z,14.73
2023-01-05T11:37:12.796Z,14.76
2023-01-05T11:39:41.239Z,14.76
2023-01-05T11:42:10.299Z,14.78
2023-01-05T11:44:38.444Z,14.78
2023-01-05T11:47:06.481Z,14.77
2023-01-05T11:49:34.219Z,14.77
2023-01-05T11:52:01.466Z,14.79
2023-01-05T11:54:31.676Z,14.78
2023-01-05T11:57:02.906Z,14.75
2023-01-05T11:59:30.552Z,14.75
2023-01-05T12:01:58.292Z,14.74
2023-01-05T12:04:33.999Z,14.72
2023-01-05T12:07:04.189Z,14.70
2023-01-05T12:09:34.982Z,14.70
2023-01-05T12:12:05.906Z,14.75
2023-01-05T12:14:36.072Z,14.79
2023-01-05T12:17:09.042Z,14.83
2023-01-05T12:19:40.901Z,14.85
2023-01-05T12:22:08.420Z,14.86
2023-01-05T12:24:38.584Z,14.91
2023-01-05T12:27:08.900Z,14.94
2023-01-05T12:35:28.178Z,15.03
2023-01-05T12:37:58.337Z,15.06
2023-01-05T12:40:28.559Z,15.04
2023-01-05T12:42:59.269Z,15.04
2023-01-05T12:45:31.984Z,15.05
2023-01-05T12:48:05.555Z,15.03
2023-01-05T12:50:38.497Z,15.01
2023-01-05T12:53:14.200Z,15.01
2023-01-05T12:55:44.079Z,14.99
2023-01-05T12:58:15.296Z,14.97
2023-01-05T13:00:46.644Z,14.92
2023-01-05T13:03:19.898Z,14.94
2023-01-05T13:05:47.275Z,14.95
2023-01-05T13:08:17.944Z,14.93
2023-01-05T13:10:49.161Z,14.93
2023-01-05T13:13:18.664Z,14.92
2023-01-05T13:15:53.389Z,14.92
2023-01-05T13:18:21.782Z,14.92
2023-01-05T13:20:52.511Z,14.95
2023-01-05T13:23:22.835Z,14.97
2023-01-05T13:25:54.835Z,15.00
2023-01-05T13:28:24.574Z,15.04
2023-01-05T13:30:56.258Z,15.03
2023-01-05T13:33:24.818Z,15.01
2023-01-05T13:36:00.577Z,15.04
2023-01-05T13:38:31.723Z,15.07
2023-01-05T13:41:01.303Z,15.10
2023-01-05T13:43:31.350Z,15.12
2023-01-05T13:46:01.439Z,15.10
2023-01-05T13:48:44.179Z,15.08
2023-01-05T13:51:21.559Z,15.08
2023-01-05T13:53:51.268Z,15.07
2023-01-05T13:56:21.452Z,15.04
2023-01-05T13:58:51.649Z,15.03
2023-01-05T14:01:21.130Z,14.99
2023-01-05T14:03:51.037Z,14.97
2023-01-05T14:06:20.523Z,15.02
2023-01-05T14:08:50.711Z,15.03
2023-01-05T14:11:19.873Z,15.07
2023-01-05T14:13:50.032Z,15.09
2023-01-05T14:16:20.263Z,15.10
2023-01-05T14:18:48.890Z,15.11
2023-01-05T14:21:35.817Z,15.14
2023-01-05T14:24:02.850Z,15.17
2023-01-05T14:26:33.069Z,15.18
2023-01-05T14:29:00.197Z,15.16
2023-01-05T14:31:30.353Z,15.14
2023-01-05T14:33:58.831Z,15.15
2023-01-05T14:36:26.271Z,15.14
2023-01-05T14:38:53.420Z,15.14
2023-01-05T14:41:26.798Z,15.14
2023-01-05T14:43:57.682Z,15.11
2023-01-05T14:46:25.477Z,15.07
2023-01-05T14:48:55.639Z,15.04
2023-01-05T14:51:24.418Z,15.01
2023-01-05T14:53:52.674Z,15.02
2023-01-05T14:56:22.383Z,14.99
2023-01-05T14:58:54.250Z,14.99
2023-01-05T15:01:24.411Z,14.97
2023-01-05T15:03:52.095Z,14.97
2023-01-05T15:06:25.319Z,14.96
2023-01-05T15:08:55.702Z,14.95
2023-01-05T15:11:30.635Z,14.94
2023-01-05T15:14:03.866Z,14.90
2023-01-05T15:16:34.112Z,14.87
2023-01-05T15:19:01.491Z,14.85
2023-01-05T15:21:32.931Z,14.85
2023-01-05T15:24:02.045Z,14.83
2023-01-05T15:26:30.608Z,14.83
2023-01-05T15:31:30.671Z,14.80
2023-01-05T15:34:01.055Z,14.80
2023-01-05T15:36:30.940Z,14.76
2023-01-05T15:38:58.070Z,14.73
2023-01-05T15:41:26.747Z,14.69
2023-01-05T15:43:54.487Z,14.65
2023-01-05T15:46:23.860Z,14.64
2023-01-05T15:48:52.334Z,14.63
2023-01-05T15:51:22.702Z,14.63
2023-01-05T15:53:52.892Z,14.64
2023-01-05T15:56:23.238Z,14.65
2023-01-05T15:58:50.327Z,14.64
2023-01-05T16:01:17.467Z,14.68
2023-01-05T16:03:45.613Z,14.64
2023-01-05T16:06:15.778Z,14.60
2023-01-05T16:08:45.451Z,14.57
2023-01-05T16:11:14.435Z,14.51
2023-01-05T16:13:41.942Z,14.48
2023-01-05T16:16:24.719Z,14.49
2023-01-05T16:19:03.391Z,14.51
2023-01-05T16:21:33.715Z,14.50
2023-01-05T16:24:03.979Z,14.49
2023-01-05T16:26:32.024Z,14.46
2023-01-05T16:28:59.151Z,14.42
2023-01-05T16:31:28.960Z,14.36
2023-01-05T16:33:59.151Z,14.30
2023-01-05T16:36:26.610Z,14.30
2023-01-05T16:38:53.587Z,14.28
2023-01-05T16:41:22.128Z,14.26
2023-01-05T16:43:52.198Z,14.22
2023-01-05T16:46:20.976Z,14.19
2023-01-05T16:48:51.691Z,14.14
2023-01-05T16:51:20.181Z,14.16
2023-01-05T16:53:48.893Z,14.16
2023-01-05T16:56:19.112Z,14.13
2023-01-05T16:58:46.719Z,14.14
2023-01-05T17:01:14.223Z,14.12
2023-01-05T17:03:42.162Z,14.11
2023-01-05T17:06:17.971Z,14.09
2023-01-05T17:08:45.192Z,14.04
2023-01-05T17:11:13.082Z,14.01
2023-01-05T17:13:41.992Z,14.01
2023-01-05T17:16:11.190Z,14.04
2023-01-05T17:18:38.296Z,14.02
2023-01-05T17:21:06.555Z,13.95
2023-01-05T17:23:38.599Z,13.92
2023-01-05T17:26:07.994Z,13.87
2023-01-05T17:28:35.159Z,13.80
2023-01-05T17:31:02.444Z,13.82
2023-01-05T17:33:29.610Z,13.82
2023-01-05T17:35:56.743Z,13.78
2023-01-05T17:38:23.882Z,13.73
2023-01-05T17:40:51.015Z,13.73
2023-01-05T17:43:19.115Z,13.70
2023-01-05T17:45:46.570Z,13.64
2023-01-05T17:48:16.604Z,13.61
2023-01-05T17:50:44.455Z,13.59
2023-01-05T17:53:11.795Z,13.55
2023-01-05T17:55:38.999Z,13.55
2023-01-05T17:58:06.209Z,13.52
2023-01-05T18:00:35.341Z,13.46
2023-01-05T18:03:02.439Z,13.45
2023-01-05T18:05:29.548Z,13.46
2023-01-05T18:07:56.655Z,13.43
2023-01-05T18:10:26.690Z,13.42
2023-01-05T18:12:55.572Z,13.37
2023-01-05T18:15:22.764Z,13.35
2023-01-05T18:17:49.889Z,13.32
2023-01-05T18:20:19.778Z,13.29
2023-01-05T18:22:48.430Z,13.25
2023-01-05T18:25:15.776Z,13.24
2023-01-05T18:27:43.179Z,13.23
2023-01-05T18:30:11.123Z,13.19
2023-01-05T18:32:38.465Z,13.19
2023-01-05T18:35:09.341Z,13.16
2023-01-05T18:37:37.947Z,13.17
2023-01-05T18:40:05.918Z,13.18
2023-01-05T18:42:33.026Z,13.20
2023-01-05T18:45:04.994Z,13.23
2023-01-05T18:47:41.340Z,13.25
2023-01-05T18:50:09.430Z,13.20
2023-01-05T18:52:36.661Z,13.23
2023-01-05T18:55:04.130Z,13.27
2023-01-05T18:57:31.917Z,13.26
2023-01-05T18:59:59.138Z,13.25
2023-01-05T19:02:26.677Z,13.25
2023-01-05T19:04:53.801Z,13.27
2023-01-05T19:07:20.896Z,13.28
2023-01-05T19:09:48.040Z,13.26
2023-01-05T19:12:15.093Z,13.27
2023-01-05T19:14:42.333Z,13.31
2023-01-05T19:17:09.431Z,13.33
2023-01-05T19:19:36.699Z,13.35
2023-01-05T19:22:03.917Z,13.39
2023-01-05T19:24:32.161Z,13.39
2023-01-05T19:26:59.301Z,13.40
2023-01-05T19:29:26.432Z,13.43
2023-01-05T19:31:53.561Z,13.45
2023-01-05T19:34:20.657Z,13.46
2023-01-05T19:36:47.915Z,13.47
2023-01-05T19:39:16.102Z,13.48
2023-01-05T19:41:46.728Z,13.51
2023-01-05T19:44:16.056Z,13.57
2023-01-05T19:46:44.058Z,13.58
2023-01-05T19:49:14.297Z,13.59
2023-01-05T19:51:41.396Z,13.59
2023-01-05T19:54:10.648Z,13.59
2023-01-05T19:56:38.410Z,13.63
2023-01-05T19:59:07.437Z,13.64
2023-01-05T20:01:36.275Z,13.65
2023-01-05T20:04:04.001Z,13.65
2023-01-05T20:06:33.115Z,13.65
2023-01-05T20:09:01.114Z,13.65
2023-01-05T20:11:33.001Z,13.67
2023-01-05T20:14:03.535Z,13.64
2023-01-05T20:16:30.666Z,13.61
2023-01-05T20:18:57.739Z,13.62
2023-01-05T20:21:24.914Z,13.64
2023-01-05T20:23:52.181Z,13.63
2023-01-05T20:26:21.303Z,13.63
2023-01-05T20:28:49.184Z,13.66
2023-01-05T20:31:19.886Z,13.70
2023-01-05T20:33:47.107Z,13.71
2023-01-05T20:36:14.243Z,13.70
2023-01-05T20:38:41.369Z,13.69
2023-01-05T20:41:11.664Z,13.73
2023-01-05T20:43:38.822Z,13.77
2023-01-05T20:46:06.082Z,13.80
2023-01-05T20:48:33.191Z,13.83
2023-01-05T20:51:03.467Z,13.84
2023-01-05T20:53:30.671Z,13.79
2023-01-05T20:55:57.690Z,13.79
2023-01-05T20:58:24.829Z,13.80
2023-01-05T21:01:09.503Z,13.82
2023-01-05T21:03:38.838Z,13.81
2023-01-05T21:06:07.289Z,13.82
2023-01-05T21:08:34.724Z,13.82
2023-01-05T21:11:02.408Z,13.85
2023-01-05T21:13:30.953Z,13.86
2023-01-05T21:16:04.835Z,13.85
2023-01-05T21:18:32.756Z,13.86
2023-01-05T21:21:00.445Z,13.85
2023-01-05T21:23:27.992Z,13.82
2023-01-05T21:26:06.691Z,13.79
2023-01-05T21:28:38.539Z,13.80
2023-01-05T21:31:06.913Z,13.83
2023-01-05T21:33:34.757Z,13.81
2023-01-05T21:36:01.859Z,13.83
2023-01-05T21:39:01.187Z,13.82
2023-01-05T21:41:16.110Z,13.83
2023-01-05T21:43:43.477Z,13.83
2023-01-05T21:46:12.435Z,13.83
2023-01-05T21:48:39.672Z,13.83
2023-01-05T21:51:10.165Z,13.84
2023-01-05T21:53:40.502Z,13.83
2023-01-05T21:56:15.373Z,13.80
2023-01-05T21:58:42.517Z,13.75
2023-01-05T22:01:09.772Z,13.73
2023-01-05T22:03:37.089Z,13.75
2023-01-05T22:06:04.262Z,13.71
2023-01-05T22:08:31.450Z,13.69
2023-01-05T22:11:00.063Z,13.68
2023-01-05T22:13:27.259Z,13.63
2023-01-05T22:15:54.860Z,13.65
2023-01-05T22:18:22.613Z,13.64
2023-01-05T22:20:53.176Z,13.63
2023-01-05T22:23:20.539Z,13.58
2023-01-05T22:25:47.602Z,13.58
2023-01-05T22:28:14.752Z,13.60
2023-01-05T22:30:41.870Z,13.63
2023-01-05T22:33:08.984Z,13.63
2023-01-05T22:35:39.145Z,13.66
2023-01-05T22:38:06.215Z,13.67
2023-01-05T22:40:33.345Z,13.67
2023-01-05T22:43:00.439Z,13.69
2023-01-05T22:45:27.676Z,13.67
2023-01-05T22:47:54.816Z,13.70
2023-01-05T22:50:22.132Z,13.66
2023-01-05T22:52:50.472Z,13.66
2023-01-05T22:55:17.535Z,13.69
2023-01-05T22:57:44.726Z,13.67
2023-01-05T23:00:12.497Z,13.68
2023-01-05T23:02:39.609Z,13.66
2023-01-05T23:05:06.984Z,13.69
2023-01-05T23:07:34.020Z,13.73
2023-01-05T23:10:01.199Z,13.65
2023-01-05T23:12:28.332Z,13.63
2023-01-05T23:14:55.455Z,13.61
2023-01-05T23:17:22.680Z,13.59
2023-01-05T23:19:49.767Z,13.54
2023-01-05T23:22:16.923Z,13.49
2023-01-05T23:24:43.931Z,13.48
2023-01-05T23:27:11.033Z,13.49
2023-01-05T23:29:38.213Z,13.49
2023-01-05T23:32:05.599Z,13.49
2023-01-05T23:34:32.655Z,13.50
2023-01-05T23:36:59.783Z,13.50
2023-01-05T23:39:26.839Z,13.48
2023-01-05T23:41:54.131Z,13.49
2023-01-05T23:44:21.235Z,13.50
2023-01-05T23:46:48.353Z,13.49
2023-01-05T23:49:19.232Z,13.53
2023-01-05T23:51:46.351Z,13.53
2023-01-05T23:54:13.892Z,13.53
2023-01-05T23:56:41.148Z,13.56
2023-01-05T23:59:08.610Z,13.57
